sensor_id;sensor_type;location;lat;lon;timestamp;P1;durP1;ratioP1;P2;durP2;ratioP2
7919;SDS011;18778;47.610;9.776;2023-12-22T00:00:30;1.40;;;1.30;;
7919;SDS011;18778;47.610;9.776;2023-12-22T00:02:55;1.93;;;1.40;;
7919;SDS011;18778;47.610;9.776;2023-12-22T00:05:21;0.83;;;0.83;;
7919;SDS011;18778;47.610;9.776;2023-12-22T00:07:46;1.50;;;0.90;;
7919;SDS011;18778;47.610;9.776;2023-12-22T00:10:12;1.20;;;1.10;;
7919;SDS011;18778;47.610;9.776;2023-12-22T00:12:37;1.50;;;1.03;;
7919;SDS011;18778;47.610;9.776;2023-12-22T00:15:04;1.27;;;1.17;;
7919;SDS011;18778;47.610;9.776;2023-12-22T00:17:31;1.03;;;1.03;;
7919;SDS011;18778;47.610;9.776;2023-12-22T00:19:56;1.40;;;1.30;;
7919;SDS011;18778;47.610;9.776;2023-12-22T00:22:24;2.20;;;1.40;;
7919;SDS011;18778;47.610;9.776;2023-12-22T00:24:50;1.17;;;1.10;;
7919;SDS011;18778;47.610;9.776;2023-12-22T00:27:16;1.50;;;1.40;;
7919;SDS011;18778;47.610;9.776;2023-12-22T00:29:42;0.93;;;0.93;;
7919;SDS011;18778;47.610;9.776;2023-12-22T00:32:07;2.00;;;1.00;;
7919;SDS011;18778;47.610;9.776;2023-12-22T00:34:34;2.73;;;1.03;;
7919;SDS011;18778;47.610;9.776;2023-12-22T00:37:00;2.40;;;1.20;;
7919;SDS011;18778;47.610;9.776;2023-12-22T00:39:26;1.67;;;1.07;;
7919;SDS011;18778;47.610;9.776;2023-12-22T00:41:52;1.77;;;1.40;;
7919;SDS011;18778;47.610;9.776;2023-12-22T00:44:17;1.40;;;1.20;;
7919;SDS011;18778;47.610;9.776;2023-12-22T00:46:43;4.50;;;1.40;;
7919;SDS011;18778;47.610;9.776;2023-12-22T00:49:09;2.13;;;1.40;;
7919;SDS011;18778;47.610;9.776;2023-12-22T00:51:35;3.20;;;1.40;;
7919;SDS011;18778;47.610;9.776;2023-12-22T00:54:00;1.57;;;1.47;;
7919;SDS011;18778;47.610;9.776;2023-12-22T00:56:26;2.40;;;1.50;;
7919;SDS011;18778;47.610;9.776;2023-12-22T00:58:52;4.73;;;1.60;;
7919;SDS011;18778;47.610;9.776;2023-12-22T01:01:18;2.57;;;1.70;;
7919;SDS011;18778;47.610;9.776;2023-12-22T01:03:44;3.10;;;1.60;;
7919;SDS011;18778;47.610;9.776;2023-12-22T01:06:10;2.83;;;1.70;;
7919;SDS011;18778;47.610;9.776;2023-12-22T01:08:36;2.77;;;1.87;;
7919;SDS011;18778;47.610;9.776;2023-12-22T01:11:03;5.43;;;1.37;;
7919;SDS011;18778;47.610;9.776;2023-12-22T01:13:29;1.53;;;1.40;;
7919;SDS011;18778;47.610;9.776;2023-12-22T01:15:54;1.20;;;1.20;;
7919;SDS011;18778;47.610;9.776;2023-12-22T01:18:20;1.43;;;1.33;;
7919;SDS011;18778;47.610;9.776;2023-12-22T01:20:46;1.20;;;1.10;;
7919;SDS011;18778;47.610;9.776;2023-12-22T01:23:11;3.50;;;1.13;;
7919;SDS011;18778;47.610;9.776;2023-12-22T01:25:37;1.13;;;1.00;;
7919;SDS011;18778;47.610;9.776;2023-12-22T01:28:03;1.47;;;1.37;;
7919;SDS011;18778;47.610;9.776;2023-12-22T01:30:29;3.30;;;1.40;;
7919;SDS011;18778;47.610;9.776;2023-12-22T01:32:55;2.40;;;1.20;;
7919;SDS011;18778;47.610;9.776;2023-12-22T01:35:21;1.57;;;1.20;;
7919;SDS011;18778;47.610;9.776;2023-12-22T01:37:47;1.67;;;1.30;;
7919;SDS011;18778;47.610;9.776;2023-12-22T01:40:14;3.00;;;1.83;;
7919;SDS011;18778;47.610;9.776;2023-12-22T01:42:40;1.50;;;1.10;;
7919;SDS011;18778;47.610;9.776;2023-12-22T01:45:06;1.73;;;1.50;;
7919;SDS011;18778;47.610;9.776;2023-12-22T01:47:32;2.07;;;1.40;;
7919;SDS011;18778;47.610;9.776;2023-12-22T01:49:59;1.50;;;1.20;;
7919;SDS011;18778;47.610;9.776;2023-12-22T01:52:25;1.60;;;1.30;;
7919;SDS011;18778;47.610;9.776;2023-12-22T01:54:52;1.80;;;1.20;;
7919;SDS011;18778;47.610;9.776;2023-12-22T01:57:20;1.30;;;1.20;;
7919;SDS011;18778;47.610;9.776;2023-12-22T01:59:46;1.23;;;1.00;;
7919;SDS011;18778;47.610;9.776;2023-12-22T02:02:13;4.00;;;1.50;;
7919;SDS011;18778;47.610;9.776;2023-12-22T02:04:39;1.30;;;1.20;;
7919;SDS011;18778;47.610;9.776;2023-12-22T02:07:06;2.67;;;1.57;;
7919;SDS011;18778;47.610;9.776;2023-12-22T02:09:33;1.70;;;1.30;;
7919;SDS011;18778;47.610;9.776;2023-12-22T02:11:59;1.00;;;1.00;;
7919;SDS011;18778;47.610;9.776;2023-12-22T02:14:25;1.73;;;1.40;;
7919;SDS011;18778;47.610;9.776;2023-12-22T02:16:55;1.50;;;1.30;;
7919;SDS011;18778;47.610;9.776;2023-12-22T02:19:42;2.47;;;1.20;;
7919;SDS011;18778;47.610;9.776;2023-12-22T02:22:10;1.40;;;1.30;;
7919;SDS011;18778;47.610;9.776;2023-12-22T02:24:37;1.30;;;1.20;;
7919;SDS011;18778;47.610;9.776;2023-12-22T02:29:52;4.10;;;1.33;;
7919;SDS011;18778;47.610;9.776;2023-12-22T02:32:34;3.83;;;1.67;;
7919;SDS011;18778;47.610;9.776;2023-12-22T02:35:03;1.97;;;1.13;;
7919;SDS011;18778;47.610;9.776;2023-12-22T02:37:32;2.57;;;1.50;;
7919;SDS011;18778;47.610;9.776;2023-12-22T02:39:59;1.40;;;1.30;;
7919;SDS011;18778;47.610;9.776;2023-12-22T02:42:25;3.13;;;1.60;;
7919;SDS011;18778;47.610;9.776;2023-12-22T02:44:55;3.13;;;1.30;;
7919;SDS011;18778;47.610;9.776;2023-12-22T02:47:38;1.93;;;1.30;;
7919;SDS011;18778;47.610;9.776;2023-12-22T02:50:04;2.00;;;1.20;;
7919;SDS011;18778;47.610;9.776;2023-12-22T02:52:48;1.60;;;1.20;;
7919;SDS011;18778;47.610;9.776;2023-12-22T02:55:14;1.33;;;1.30;;
7919;SDS011;18778;47.610;9.776;2023-12-22T02:57:41;1.53;;;1.20;;
7919;SDS011;18778;47.610;9.776;2023-12-22T03:00:07;4.07;;;1.40;;
7919;SDS011;18778;47.610;9.776;2023-12-22T03:02:33;1.60;;;1.43;;
7919;SDS011;18778;47.610;9.776;2023-12-22T03:04:59;2.13;;;1.50;;
7919;SDS011;18778;47.610;9.776;2023-12-22T03:07:25;3.00;;;1.50;;
7919;SDS011;18778;47.610;9.776;2023-12-22T03:09:51;3.43;;;1.30;;
7919;SDS011;18778;47.610;9.776;2023-12-22T03:12:17;4.20;;;1.60;;
7919;SDS011;18778;47.610;9.776;2023-12-22T03:14:43;3.23;;;1.90;;
7919;SDS011;18778;47.610;9.776;2023-12-22T03:17:09;3.07;;;1.43;;
7919;SDS011;18778;47.610;9.776;2023-12-22T03:19:36;3.80;;;1.70;;
7919;SDS011;18778;47.610;9.776;2023-12-22T03:22:02;1.60;;;1.50;;
7919;SDS011;18778;47.610;9.776;2023-12-22T03:24:28;3.00;;;1.90;;
7919;SDS011;18778;47.610;9.776;2023-12-22T03:26:54;2.50;;;1.43;;
7919;SDS011;18778;47.610;9.776;2023-12-22T03:29:20;3.90;;;1.50;;
7919;SDS011;18778;47.610;9.776;2023-12-22T03:31:47;3.20;;;1.67;;
7919;SDS011;18778;47.610;9.776;2023-12-22T03:34:13;2.67;;;1.80;;
7919;SDS011;18778;47.610;9.776;2023-12-22T03:36:39;1.87;;;1.60;;
7919;SDS011;18778;47.610;9.776;2023-12-22T03:39:05;4.23;;;1.70;;
7919;SDS011;18778;47.610;9.776;2023-12-22T03:41:31;3.20;;;1.47;;
7919;SDS011;18778;47.610;9.776;2023-12-22T03:43:57;4.70;;;1.87;;
7919;SDS011;18778;47.610;9.776;2023-12-22T03:46:23;8.00;;;2.03;;
7919;SDS011;18778;47.610;9.776;2023-12-22T03:48:50;6.67;;;2.00;;
7919;SDS011;18778;47.610;9.776;2023-12-22T03:51:16;2.03;;;1.43;;
7919;SDS011;18778;47.610;9.776;2023-12-22T03:53:42;4.97;;;1.80;;
7919;SDS011;18778;47.610;9.776;2023-12-22T03:56:08;1.80;;;1.33;;
7919;SDS011;18778;47.610;9.776;2023-12-22T03:58:34;5.77;;;1.90;;
7919;SDS011;18778;47.610;9.776;2023-12-22T04:01:01;3.30;;;1.57;;
7919;SDS011;18778;47.610;9.776;2023-12-22T04:03:27;3.70;;;1.27;;
7919;SDS011;18778;47.610;9.776;2023-12-22T04:05:53;2.33;;;1.63;;
7919;SDS011;18778;47.610;9.776;2023-12-22T04:08:19;2.20;;;1.60;;
7919;SDS011;18778;47.610;9.776;2023-12-22T04:10:45;2.97;;;1.50;;
7919;SDS011;18778;47.610;9.776;2023-12-22T04:13:12;7.27;;;1.50;;
7919;SDS011;18778;47.610;9.776;2023-12-22T04:15:38;4.30;;;1.30;;
7919;SDS011;18778;47.610;9.776;2023-12-22T04:18:04;3.47;;;1.30;;
7919;SDS011;18778;47.610;9.776;2023-12-22T04:20:30;2.87;;;1.00;;
7919;SDS011;18778;47.610;9.776;2023-12-22T04:22:56;1.63;;;1.30;;
7919;SDS011;18778;47.610;9.776;2023-12-22T04:25:22;1.73;;;1.13;;
7919;SDS011;18778;47.610;9.776;2023-12-22T04:27:50;1.53;;;1.30;;
7919;SDS011;18778;47.610;9.776;2023-12-22T04:30:16;3.23;;;1.37;;
7919;SDS011;18778;47.610;9.776;2023-12-22T04:32:41;2.87;;;1.50;;
7919;SDS011;18778;47.610;9.776;2023-12-22T04:35:08;3.60;;;1.43;;
7919;SDS011;18778;47.610;9.776;2023-12-22T04:37:34;5.00;;;1.90;;
7919;SDS011;18778;47.610;9.776;2023-12-22T04:39:59;4.03;;;2.10;;
7919;SDS011;18778;47.610;9.776;2023-12-22T04:42:25;3.67;;;1.60;;
7919;SDS011;18778;47.610;9.776;2023-12-22T04:44:51;1.63;;;1.50;;
7919;SDS011;18778;47.610;9.776;2023-12-22T04:47:17;3.87;;;2.03;;
7919;SDS011;18778;47.610;9.776;2023-12-22T04:49:43;3.37;;;1.70;;
7919;SDS011;18778;47.610;9.776;2023-12-22T04:52:10;3.10;;;1.77;;
7919;SDS011;18778;47.610;9.776;2023-12-22T04:54:36;3.47;;;1.60;;
7919;SDS011;18778;47.610;9.776;2023-12-22T04:57:02;3.80;;;1.77;;
7919;SDS011;18778;47.610;9.776;2023-12-22T04:59:28;4.97;;;1.93;;
7919;SDS011;18778;47.610;9.776;2023-12-22T05:01:54;4.60;;;1.63;;
7919;SDS011;18778;47.610;9.776;2023-12-22T05:04:20;2.10;;;1.50;;
7919;SDS011;18778;47.610;9.776;2023-12-22T05:06:47;2.10;;;1.40;;
7919;SDS011;18778;47.610;9.776;2023-12-22T05:09:13;2.60;;;1.67;;
7919;SDS011;18778;47.610;9.776;2023-12-22T05:11:38;4.20;;;1.43;;
7919;SDS011;18778;47.610;9.776;2023-12-22T05:14:04;3.93;;;1.77;;
7919;SDS011;18778;47.610;9.776;2023-12-22T05:16:29;2.30;;;1.60;;
7919;SDS011;18778;47.610;9.776;2023-12-22T05:18:56;3.37;;;1.53;;
7919;SDS011;18778;47.610;9.776;2023-12-22T05:21:22;2.37;;;1.50;;
7919;SDS011;18778;47.610;9.776;2023-12-22T05:23:54;2.73;;;1.47;;
7919;SDS011;18778;47.610;9.776;2023-12-22T05:26:20;1.77;;;1.47;;
7919;SDS011;18778;47.610;9.776;2023-12-22T05:28:47;2.10;;;1.40;;
7919;SDS011;18778;47.610;9.776;2023-12-22T05:31:14;4.63;;;1.50;;
7919;SDS011;18778;47.610;9.776;2023-12-22T05:33:41;2.67;;;1.40;;
7919;SDS011;18778;47.610;9.776;2023-12-22T05:36:06;2.03;;;1.37;;
7919;SDS011;18778;47.610;9.776;2023-12-22T05:38:32;2.53;;;1.40;;
7919;SDS011;18778;47.610;9.776;2023-12-22T05:41:01;1.90;;;1.37;;
7919;SDS011;18778;47.610;9.776;2023-12-22T05:43:27;2.70;;;1.77;;
7919;SDS011;18778;47.610;9.776;2023-12-22T05:45:53;9.93;;;2.47;;
7919;SDS011;18778;47.610;9.776;2023-12-22T05:48:18;3.50;;;1.77;;
7919;SDS011;18778;47.610;9.776;2023-12-22T05:50:46;5.00;;;1.87;;
7919;SDS011;18778;47.610;9.776;2023-12-22T05:53:12;3.67;;;1.90;;
7919;SDS011;18778;47.610;9.776;2023-12-22T05:55:38;6.23;;;1.80;;
7919;SDS011;18778;47.610;9.776;2023-12-22T05:58:04;2.43;;;1.40;;
7919;SDS011;18778;47.610;9.776;2023-12-22T06:00:30;3.07;;;1.50;;
7919;SDS011;18778;47.610;9.776;2023-12-22T06:02:56;3.60;;;2.10;;
7919;SDS011;18778;47.610;9.776;2023-12-22T06:05:22;4.00;;;1.83;;
7919;SDS011;18778;47.610;9.776;2023-12-22T06:07:48;5.53;;;1.93;;
7919;SDS011;18778;47.610;9.776;2023-12-22T06:10:14;3.90;;;1.63;;
7919;SDS011;18778;47.610;9.776;2023-12-22T06:12:40;5.10;;;2.17;;
7919;SDS011;18778;47.610;9.776;2023-12-22T06:15:05;5.07;;;1.60;;
7919;SDS011;18778;47.610;9.776;2023-12-22T06:17:31;6.87;;;2.10;;
7919;SDS011;18778;47.610;9.776;2023-12-22T06:19:57;4.00;;;1.73;;
7919;SDS011;18778;47.610;9.776;2023-12-22T06:22:22;3.63;;;1.73;;
7919;SDS011;18778;47.610;9.776;2023-12-22T06:24:48;3.57;;;2.00;;
7919;SDS011;18778;47.610;9.776;2023-12-22T06:27:14;4.77;;;1.90;;
7919;SDS011;18778;47.610;9.776;2023-12-22T06:29:39;4.47;;;1.70;;
7919;SDS011;18778;47.610;9.776;2023-12-22T06:32:06;4.17;;;1.60;;
7919;SDS011;18778;47.610;9.776;2023-12-22T06:34:32;7.47;;;2.17;;
7919;SDS011;18778;47.610;9.776;2023-12-22T06:37:00;2.70;;;2.00;;
7919;SDS011;18778;47.610;9.776;2023-12-22T06:39:25;5.30;;;1.70;;
7919;SDS011;18778;47.610;9.776;2023-12-22T06:41:53;3.17;;;1.57;;
7919;SDS011;18778;47.610;9.776;2023-12-22T06:44:19;7.10;;;2.33;;
7919;SDS011;18778;47.610;9.776;2023-12-22T06:46:44;2.60;;;1.83;;
7919;SDS011;18778;47.610;9.776;2023-12-22T06:49:10;5.40;;;2.10;;
7919;SDS011;18778;47.610;9.776;2023-12-22T06:51:36;6.07;;;2.10;;
7919;SDS011;18778;47.610;9.776;2023-12-22T06:54:02;5.40;;;1.93;;
7919;SDS011;18778;47.610;9.776;2023-12-22T06:56:30;4.37;;;2.00;;
7919;SDS011;18778;47.610;9.776;2023-12-22T06:58:57;7.30;;;2.50;;
7919;SDS011;18778;47.610;9.776;2023-12-22T07:01:30;4.47;;;2.13;;
7919;SDS011;18778;47.610;9.776;2023-12-22T07:03:56;8.57;;;2.20;;
7919;SDS011;18778;47.610;9.776;2023-12-22T07:06:25;6.27;;;1.80;;
7919;SDS011;18778;47.610;9.776;2023-12-22T07:11:37;4.53;;;1.83;;
7919;SDS011;18778;47.610;9.776;2023-12-22T07:14:07;5.93;;;2.23;;
7919;SDS011;18778;47.610;9.776;2023-12-22T07:16:34;4.20;;;1.83;;
7919;SDS011;18778;47.610;9.776;2023-12-22T07:19:01;8.30;;;2.50;;
7919;SDS011;18778;47.610;9.776;2023-12-22T07:21:28;5.97;;;2.40;;
7919;SDS011;18778;47.610;9.776;2023-12-22T07:23:54;10.53;;;2.67;;
7919;SDS011;18778;47.610;9.776;2023-12-22T07:26:20;5.97;;;2.43;;
7919;SDS011;18778;47.610;9.776;2023-12-22T07:28:47;7.97;;;2.40;;
7919;SDS011;18778;47.610;9.776;2023-12-22T07:31:14;4.10;;;2.03;;
7919;SDS011;18778;47.610;9.776;2023-12-22T07:33:40;6.30;;;2.47;;
7919;SDS011;18778;47.610;9.776;2023-12-22T07:36:06;5.97;;;2.27;;
7919;SDS011;18778;47.610;9.776;2023-12-22T07:38:32;8.37;;;2.30;;
7919;SDS011;18778;47.610;9.776;2023-12-22T07:40:58;7.63;;;2.70;;
7919;SDS011;18778;47.610;9.776;2023-12-22T07:43:25;5.37;;;2.27;;
7919;SDS011;18778;47.610;9.776;2023-12-22T07:45:51;6.83;;;1.83;;
7919;SDS011;18778;47.610;9.776;2023-12-22T07:48:18;6.47;;;2.40;;
7919;SDS011;18778;47.610;9.776;2023-12-22T07:50:44;7.47;;;2.43;;
7919;SDS011;18778;47.610;9.776;2023-12-22T07:53:11;8.73;;;2.37;;
7919;SDS011;18778;47.610;9.776;2023-12-22T07:55:37;6.63;;;2.00;;
7919;SDS011;18778;47.610;9.776;2023-12-22T07:58:09;6.20;;;2.27;;
7919;SDS011;18778;47.610;9.776;2023-12-22T08:00:35;9.37;;;2.30;;
7919;SDS011;18778;47.610;9.776;2023-12-22T08:03:02;6.40;;;2.00;;
7919;SDS011;18778;47.610;9.776;2023-12-22T08:05:28;5.20;;;2.13;;
7919;SDS011;18778;47.610;9.776;2023-12-22T08:07:55;5.63;;;2.27;;
7919;SDS011;18778;47.610;9.776;2023-12-22T08:10:21;7.30;;;2.70;;
7919;SDS011;18778;47.610;9.776;2023-12-22T08:12:47;7.13;;;2.33;;
7919;SDS011;18778;47.610;9.776;2023-12-22T08:15:13;6.37;;;2.20;;
7919;SDS011;18778;47.610;9.776;2023-12-22T08:17:45;7.03;;;2.30;;
7919;SDS011;18778;47.610;9.776;2023-12-22T08:20:15;4.30;;;2.50;;
7919;SDS011;18778;47.610;9.776;2023-12-22T08:22:44;6.13;;;2.63;;
7919;SDS011;18778;47.610;9.776;2023-12-22T08:25:12;6.83;;;2.00;;
7919;SDS011;18778;47.610;9.776;2023-12-22T08:27:38;7.97;;;2.43;;
7919;SDS011;18778;47.610;9.776;2023-12-22T08:30:04;6.90;;;1.87;;
7919;SDS011;18778;47.610;9.776;2023-12-22T08:32:30;6.53;;;2.67;;
7919;SDS011;18778;47.610;9.776;2023-12-22T08:34:56;6.33;;;2.10;;
7919;SDS011;18778;47.610;9.776;2023-12-22T08:37:21;7.20;;;2.20;;
7919;SDS011;18778;47.610;9.776;2023-12-22T08:39:47;6.57;;;2.43;;
7919;SDS011;18778;47.610;9.776;2023-12-22T08:42:13;6.07;;;2.10;;
7919;SDS011;18778;47.610;9.776;2023-12-22T08:44:39;8.27;;;2.23;;
7919;SDS011;18778;47.610;9.776;2023-12-22T08:47:04;8.13;;;2.20;;
7919;SDS011;18778;47.610;9.776;2023-12-22T08:49:30;6.97;;;2.27;;
7919;SDS011;18778;47.610;9.776;2023-12-22T08:51:55;9.57;;;2.37;;
7919;SDS011;18778;47.610;9.776;2023-12-22T08:54:21;8.20;;;2.20;;
7919;SDS011;18778;47.610;9.776;2023-12-22T08:56:47;6.67;;;2.37;;
7919;SDS011;18778;47.610;9.776;2023-12-22T08:59:12;6.37;;;2.50;;
7919;SDS011;18778;47.610;9.776;2023-12-22T09:01:38;14.17;;;2.80;;
7919;SDS011;18778;47.610;9.776;2023-12-22T09:04:05;6.60;;;2.20;;
7919;SDS011;18778;47.610;9.776;2023-12-22T09:06:31;6.23;;;2.10;;
7919;SDS011;18778;47.610;9.776;2023-12-22T09:08:57;8.43;;;2.30;;
7919;SDS011;18778;47.610;9.776;2023-12-22T09:11:23;5.60;;;2.20;;
7919;SDS011;18778;47.610;9.776;2023-12-22T09:13:48;5.97;;;2.10;;
7919;SDS011;18778;47.610;9.776;2023-12-22T09:16:19;7.37;;;2.37;;
7919;SDS011;18778;47.610;9.776;2023-12-22T09:18:46;6.00;;;2.00;;
7919;SDS011;18778;47.610;9.776;2023-12-22T09:21:12;7.83;;;2.27;;
7919;SDS011;18778;47.610;9.776;2023-12-22T09:23:37;5.17;;;2.17;;
7919;SDS011;18778;47.610;9.776;2023-12-22T09:26:03;8.50;;;2.37;;
7919;SDS011;18778;47.610;9.776;2023-12-22T09:28:29;7.90;;;1.87;;
7919;SDS011;18778;47.610;9.776;2023-12-22T09:30:55;3.87;;;1.80;;
7919;SDS011;18778;47.610;9.776;2023-12-22T09:33:21;7.20;;;2.00;;
7919;SDS011;18778;47.610;9.776;2023-12-22T09:35:48;8.77;;;2.33;;
7919;SDS011;18778;47.610;9.776;2023-12-22T09:38:13;5.60;;;2.00;;
7919;SDS011;18778;47.610;9.776;2023-12-22T09:40:39;5.53;;;2.20;;
7919;SDS011;18778;47.610;9.776;2023-12-22T09:43:05;8.77;;;2.43;;
7919;SDS011;18778;47.610;9.776;2023-12-22T09:45:32;5.67;;;2.00;;
7919;SDS011;18778;47.610;9.776;2023-12-22T09:47:59;3.23;;;1.90;;
7919;SDS011;18778;47.610;9.776;2023-12-22T09:50:26;5.73;;;2.37;;
7919;SDS011;18778;47.610;9.776;2023-12-22T09:52:52;5.07;;;2.57;;
7919;SDS011;18778;47.610;9.776;2023-12-22T09:55:18;6.53;;;1.80;;
7919;SDS011;18778;47.610;9.776;2023-12-22T09:57:50;5.07;;;1.77;;
7919;SDS011;18778;47.610;9.776;2023-12-22T10:00:16;8.13;;;2.27;;
7919;SDS011;18778;47.610;9.776;2023-12-22T10:02:43;7.07;;;2.43;;
7919;SDS011;18778;47.610;9.776;2023-12-22T10:05:10;7.17;;;2.40;;
7919;SDS011;18778;47.610;9.776;2023-12-22T10:07:38;6.50;;;2.10;;
7919;SDS011;18778;47.610;9.776;2023-12-22T10:10:05;3.67;;;2.13;;
7919;SDS011;18778;47.610;9.776;2023-12-22T10:12:32;8.77;;;3.07;;
7919;SDS011;18778;47.610;9.776;2023-12-22T10:14:59;7.57;;;2.50;;
7919;SDS011;18778;47.610;9.776;2023-12-22T10:17:26;6.87;;;2.13;;
7919;SDS011;18778;47.610;9.776;2023-12-22T10:19:52;6.87;;;2.57;;
7919;SDS011;18778;47.610;9.776;2023-12-22T10:22:17;6.37;;;2.10;;
7919;SDS011;18778;47.610;9.776;2023-12-22T10:24:44;6.00;;;2.00;;
7919;SDS011;18778;47.610;9.776;2023-12-22T10:27:17;7.70;;;2.93;;
7919;SDS011;18778;47.610;9.776;2023-12-22T10:29:49;9.63;;;2.50;;
7919;SDS011;18778;47.610;9.776;2023-12-22T10:32:19;6.13;;;2.30;;
7919;SDS011;18778;47.610;9.776;2023-12-22T10:34:46;5.93;;;2.27;;
7919;SDS011;18778;47.610;9.776;2023-12-22T10:37:12;4.90;;;2.10;;
7919;SDS011;18778;47.610;9.776;2023-12-22T10:39:38;6.10;;;2.47;;
7919;SDS011;18778;47.610;9.776;2023-12-22T10:42:04;13.47;;;2.90;;
7919;SDS011;18778;47.610;9.776;2023-12-22T10:44:30;5.70;;;2.03;;
7919;SDS011;18778;47.610;9.776;2023-12-22T10:46:56;4.40;;;1.93;;
7919;SDS011;18778;47.610;9.776;2023-12-22T10:49:23;3.97;;;1.70;;
7919;SDS011;18778;47.610;9.776;2023-12-22T10:51:50;6.10;;;1.90;;
7919;SDS011;18778;47.610;9.776;2023-12-22T10:54:17;6.20;;;2.00;;
7919;SDS011;18778;47.610;9.776;2023-12-22T10:56:44;6.97;;;2.07;;
7919;SDS011;18778;47.610;9.776;2023-12-22T10:59:10;5.53;;;2.23;;
7919;SDS011;18778;47.610;9.776;2023-12-22T11:01:36;6.03;;;2.10;;
7919;SDS011;18778;47.610;9.776;2023-12-22T11:04:06;9.43;;;2.57;;
7919;SDS011;18778;47.610;9.776;2023-12-22T11:06:41;6.00;;;1.90;;
7919;SDS011;18778;47.610;9.776;2023-12-22T11:09:09;8.53;;;1.90;;
7919;SDS011;18778;47.610;9.776;2023-12-22T11:11:36;4.23;;;1.80;;
7919;SDS011;18778;47.610;9.776;2023-12-22T11:14:03;6.60;;;2.20;;
7919;SDS011;18778;47.610;9.776;2023-12-22T11:16:30;8.00;;;2.13;;
7919;SDS011;18778;47.610;9.776;2023-12-22T11:18:58;3.90;;;1.97;;
7919;SDS011;18778;47.610;9.776;2023-12-22T11:21:24;7.10;;;2.43;;
7919;SDS011;18778;47.610;9.776;2023-12-22T11:23:51;5.80;;;2.13;;
7919;SDS011;18778;47.610;9.776;2023-12-22T11:26:18;5.47;;;1.63;;
7919;SDS011;18778;47.610;9.776;2023-12-22T11:28:46;6.90;;;2.37;;
7919;SDS011;18778;47.610;9.776;2023-12-22T11:31:13;5.37;;;2.10;;
7919;SDS011;18778;47.610;9.776;2023-12-22T11:33:45;6.00;;;2.23;;
7919;SDS011;18778;47.610;9.776;2023-12-22T11:36:12;8.47;;;2.00;;
7919;SDS011;18778;47.610;9.776;2023-12-22T11:38:39;6.47;;;2.00;;
7919;SDS011;18778;47.610;9.776;2023-12-22T11:41:06;5.00;;;1.93;;
7919;SDS011;18778;47.610;9.776;2023-12-22T11:43:42;10.17;;;2.33;;
7919;SDS011;18778;47.610;9.776;2023-12-22T11:46:09;6.97;;;1.90;;
7919;SDS011;18778;47.610;9.776;2023-12-22T11:48:34;6.43;;;1.70;;
7919;SDS011;18778;47.610;9.776;2023-12-22T11:51:00;7.37;;;1.97;;
7919;SDS011;18778;47.610;9.776;2023-12-22T11:53:29;7.23;;;2.33;;
7919;SDS011;18778;47.610;9.776;2023-12-22T11:55:58;5.40;;;1.93;;
7919;SDS011;18778;47.610;9.776;2023-12-22T12:01:05;3.03;;;1.57;;
7919;SDS011;18778;47.610;9.776;2023-12-22T12:03:32;5.13;;;1.80;;
7919;SDS011;18778;47.610;9.776;2023-12-22T12:08:38;3.33;;;1.93;;
7919;SDS011;18778;47.610;9.776;2023-12-22T12:11:04;7.53;;;1.53;;
7919;SDS011;18778;47.610;9.776;2023-12-22T12:13:31;2.97;;;1.80;;
7919;SDS011;18778;47.610;9.776;2023-12-22T12:15:58;2.13;;;1.30;;
7919;SDS011;18778;47.610;9.776;2023-12-22T12:18:29;2.90;;;1.40;;
7919;SDS011;18778;47.610;9.776;2023-12-22T12:20:56;2.73;;;1.40;;
7919;SDS011;18778;47.610;9.776;2023-12-22T12:23:25;6.93;;;1.40;;
7919;SDS011;18778;47.610;9.776;2023-12-22T12:25:52;2.23;;;1.70;;
7919;SDS011;18778;47.610;9.776;2023-12-22T12:28:29;1.47;;;1.20;;
7919;SDS011;18778;47.610;9.776;2023-12-22T12:30:57;3.87;;;1.50;;
7919;SDS011;18778;47.610;9.776;2023-12-22T12:33:25;4.20;;;1.57;;
7919;SDS011;18778;47.610;9.776;2023-12-22T12:35:52;2.83;;;1.73;;
7919;SDS011;18778;47.610;9.776;2023-12-22T12:38:28;3.50;;;1.43;;
7919;SDS011;18778;47.610;9.776;2023-12-22T12:41:10;2.70;;;1.53;;
7919;SDS011;18778;47.610;9.776;2023-12-22T12:43:40;5.00;;;1.40;;
7919;SDS011;18778;47.610;9.776;2023-12-22T12:46:08;2.27;;;1.07;;
7919;SDS011;18778;47.610;9.776;2023-12-22T12:48:34;2.23;;;1.30;;
7919;SDS011;18778;47.610;9.776;2023-12-22T12:51:06;2.83;;;1.40;;
7919;SDS011;18778;47.610;9.776;2023-12-22T12:53:32;2.13;;;1.37;;
7919;SDS011;18778;47.610;9.776;2023-12-22T12:55:58;2.13;;;1.00;;
7919;SDS011;18778;47.610;9.776;2023-12-22T12:58:28;1.20;;;1.10;;
7919;SDS011;18778;47.610;9.776;2023-12-22T13:01:03;3.17;;;1.10;;
7919;SDS011;18778;47.610;9.776;2023-12-22T13:03:32;2.03;;;1.07;;
7919;SDS011;18778;47.610;9.776;2023-12-22T13:06:07;2.37;;;1.13;;
7919;SDS011;18778;47.610;9.776;2023-12-22T13:08:33;2.73;;;1.27;;
7919;SDS011;18778;47.610;9.776;2023-12-22T13:11:00;1.87;;;1.20;;
7919;SDS011;18778;47.610;9.776;2023-12-22T13:13:26;2.00;;;1.33;;
7919;SDS011;18778;47.610;9.776;2023-12-22T13:15:52;1.40;;;1.07;;
7919;SDS011;18778;47.610;9.776;2023-12-22T13:18:17;0.87;;;0.87;;
7919;SDS011;18778;47.610;9.776;2023-12-22T13:20:43;1.90;;;1.47;;
7919;SDS011;18778;47.610;9.776;2023-12-22T13:23:09;1.00;;;1.00;;
7919;SDS011;18778;47.610;9.776;2023-12-22T13:25:38;1.90;;;1.20;;
7919;SDS011;18778;47.610;9.776;2023-12-22T13:28:05;1.00;;;1.00;;
7919;SDS011;18778;47.610;9.776;2023-12-22T13:30:34;1.87;;;0.90;;
7919;SDS011;18778;47.610;9.776;2023-12-22T13:33:05;1.10;;;1.10;;
7919;SDS011;18778;47.610;9.776;2023-12-22T13:35:31;1.23;;;1.13;;
7919;SDS011;18778;47.610;9.776;2023-12-22T13:38:00;1.53;;;1.00;;
7919;SDS011;18778;47.610;9.776;2023-12-22T13:40:26;1.03;;;0.93;;
7919;SDS011;18778;47.610;9.776;2023-12-22T13:42:53;1.10;;;1.00;;
7919;SDS011;18778;47.610;9.776;2023-12-22T13:45:20;1.10;;;1.10;;
7919;SDS011;18778;47.610;9.776;2023-12-22T13:47:46;1.27;;;1.00;;
7919;SDS011;18778;47.610;9.776;2023-12-22T13:50:13;2.73;;;1.20;;
7919;SDS011;18778;47.610;9.776;2023-12-22T13:52:42;1.10;;;1.10;;
7919;SDS011;18778;47.610;9.776;2023-12-22T13:57:36;1.10;;;1.10;;
7919;SDS011;18778;47.610;9.776;2023-12-22T14:00:02;0.90;;;0.90;;
7919;SDS011;18778;47.610;9.776;2023-12-22T14:02:51;0.90;;;0.90;;
7919;SDS011;18778;47.610;9.776;2023-12-22T14:05:20;1.30;;;1.20;;
7919;SDS011;18778;47.610;9.776;2023-12-22T14:07:46;1.10;;;1.10;;
7919;SDS011;18778;47.610;9.776;2023-12-22T14:10:12;1.00;;;1.00;;
7919;SDS011;18778;47.610;9.776;2023-12-22T14:12:38;2.53;;;0.87;;
7919;SDS011;18778;47.610;9.776;2023-12-22T14:15:08;1.13;;;1.13;;
7919;SDS011;18778;47.610;9.776;2023-12-22T14:17:34;0.80;;;0.80;;
7919;SDS011;18778;47.610;9.776;2023-12-22T14:20:00;1.07;;;1.07;;
7919;SDS011;18778;47.610;9.776;2023-12-22T14:22:26;1.10;;;1.10;;
7919;SDS011;18778;47.610;9.776;2023-12-22T14:24:52;0.90;;;0.90;;
7919;SDS011;18778;47.610;9.776;2023-12-22T14:27:18;0.90;;;0.90;;
7919;SDS011;18778;47.610;9.776;2023-12-22T14:29:44;0.90;;;0.90;;
7919;SDS011;18778;47.610;9.776;2023-12-22T14:32:10;1.20;;;0.83;;
7919;SDS011;18778;47.610;9.776;2023-12-22T14:34:37;1.00;;;1.00;;
7919;SDS011;18778;47.610;9.776;2023-12-22T14:37:03;1.10;;;1.10;;
7919;SDS011;18778;47.610;9.776;2023-12-22T14:39:29;0.80;;;0.80;;
7919;SDS011;18778;47.610;9.776;2023-12-22T14:41:56;0.93;;;0.93;;
7919;SDS011;18778;47.610;9.776;2023-12-22T14:44:21;1.00;;;1.00;;
7919;SDS011;18778;47.610;9.776;2023-12-22T14:46:47;0.87;;;0.87;;
7919;SDS011;18778;47.610;9.776;2023-12-22T14:49:13;0.93;;;0.93;;
7919;SDS011;18778;47.610;9.776;2023-12-22T14:51:38;0.70;;;0.70;;
7919;SDS011;18778;47.610;9.776;2023-12-22T14:54:05;1.10;;;1.10;;
7919;SDS011;18778;47.610;9.776;2023-12-22T14:56:31;1.07;;;0.70;;
7919;SDS011;18778;47.610;9.776;2023-12-22T14:59:02;0.80;;;0.80;;
7919;SDS011;18778;47.610;9.776;2023-12-22T15:01:28;1.70;;;0.70;;
7919;SDS011;18778;47.610;9.776;2023-12-22T15:03:58;0.90;;;0.90;;
7919;SDS011;18778;47.610;9.776;2023-12-22T15:06:23;0.70;;;0.70;;
7919;SDS011;18778;47.610;9.776;2023-12-22T15:08:49;0.83;;;0.83;;
7919;SDS011;18778;47.610;9.776;2023-12-22T15:11:15;0.80;;;0.80;;